sensor_id;sensor_type;location;lat;lon;timestamp;temperature;humidity
25512;DHT22;13414;44.534;18.700;2023-03-01T00:01:47;3.50;99.90
25512;DHT22;13414;44.534;18.700;2023-03-01T00:04:15;3.50;1.00
25512;DHT22;13414;44.534;18.700;2023-03-01T00:06:43;3.40;1.00
25512;DHT22;13414;44.534;18.700;2023-03-01T00:09:12;3.40;99.90
25512;DHT22;13414;44.534;18.700;2023-03-01T00:11:41;3.40;1.00
25512;DHT22;13414;44.534;18.700;2023-03-01T00:14:09;3.30;1.00
25512;DHT22;13414;44.534;18.700;2023-03-01T00:16:38;3.30;99.90
25512;DHT22;13414;44.534;18.700;2023-03-01T00:19:07;3.40;1.00
25512;DHT22;13414;44.534;18.700;2023-03-01T00:21:35;3.40;1.00
25512;DHT22;13414;44.534;18.700;2023-03-01T00:24:03;3.40;99.90
25512;DHT22;13414;44.534;18.700;2023-03-01T00:26:31;3.50;1.00
25512;DHT22;13414;44.534;18.700;2023-03-01T00:29:00;3.50;1.00
25512;DHT22;13414;44.534;18.700;2023-03-01T00:31:29;3.40;99.90
25512;DHT22;13414;44.534;18.700;2023-03-01T00:33:59;3.40;99.90
25512;DHT22;13414;44.534;18.700;2023-03-01T00:36:30;3.40;1.00
25512;DHT22;13414;44.534;18.700;2023-03-01T00:38:57;3.40;99.90
25512;DHT22;13414;44.534;18.700;2023-03-01T00:41:26;3.50;1.00
25512;DHT22;13414;44.534;18.700;2023-03-01T00:43:54;3.40;99.90
25512;DHT22;13414;44.534;18.700;2023-03-01T00:46:24;3.40;1.00
25512;DHT22;13414;44.534;18.700;2023-03-01T00:48:52;3.50;44.00
25512;DHT22;13414;44.534;18.700;2023-03-01T00:51:23;3.40;99.90
25512;DHT22;13414;44.534;18.700;2023-03-01T00:53:51;3.40;99.90
25512;DHT22;13414;44.534;18.700;2023-03-01T00:56:19;3.30;1.00
25512;DHT22;13414;44.534;18.700;2023-03-01T00:58:47;3.40;1.00
25512;DHT22;13414;44.534;18.700;2023-03-01T01:01:16;3.30;1.00
25512;DHT22;13414;44.534;18.700;2023-03-01T01:03:48;3.30;1.00
25512;DHT22;13414;44.534;18.700;2023-03-01T01:06:18;3.30;1.00
25512;DHT22;13414;44.534;18.700;2023-03-01T01:08:46;3.30;1.00
25512;DHT22;13414;44.534;18.700;2023-03-01T01:11:15;3.30;1.00
25512;DHT22;13414;44.534;18.700;2023-03-01T01:13:44;3.30;1.00
25512;DHT22;13414;44.534;18.700;2023-03-01T01:16:12;3.30;1.00
25512;DHT22;13414;44.534;18.700;2023-03-01T01:18:40;3.40;1.00
25512;DHT22;13414;44.534;18.700;2023-03-01T01:21:11;3.30;1.00
25512;DHT22;13414;44.534;18.700;2023-03-01T01:23:40;3.30;1.00
25512;DHT22;13414;44.534;18.700;2023-03-01T01:26:09;3.40;1.00
25512;DHT22;13414;44.534;18.700;2023-03-01T01:28:37;3.30;1.00
25512;DHT22;13414;44.534;18.700;2023-03-01T01:31:05;3.30;99.90
25512;DHT22;13414;44.534;18.700;2023-03-01T01:33:33;3.20;99.90
25512;DHT22;13414;44.534;18.700;2023-03-01T01:36:01;3.20;1.00
25512;DHT22;13414;44.534;18.700;2023-03-01T01:38:30;3.10;99.90
25512;DHT22;13414;44.534;18.700;2023-03-01T01:40:58;3.10;1.00
25512;DHT22;13414;44.534;18.700;2023-03-01T01:43:27;3.20;1.00
25512;DHT22;13414;44.534;18.700;2023-03-01T01:45:56;3.20;98.60
25512;DHT22;13414;44.534;18.700;2023-03-01T01:48:28;3.30;99.90
25512;DHT22;13414;44.534;18.700;2023-03-01T01:51:11;3.40;99.90
25512;DHT22;13414;44.534;18.700;2023-03-01T01:53:43;3.30;27.30
25512;DHT22;13414;44.534;18.700;2023-03-01T01:56:15;3.20;1.00
25512;DHT22;13414;44.534;18.700;2023-03-01T01:58:49;3.20;1.00
25512;DHT22;13414;44.534;18.700;2023-03-01T02:01:17;3.30;1.00
25512;DHT22;13414;44.534;18.700;2023-03-01T02:03:51;3.30;1.00
25512;DHT22;13414;44.534;18.700;2023-03-01T02:06:27;3.40;99.90
25512;DHT22;13414;44.534;18.700;2023-03-01T02:09:03;3.40;1.00
25512;DHT22;13414;44.534;18.700;2023-03-01T02:11:35;3.50;1.00
25512;DHT22;13414;44.534;18.700;2023-03-01T02:14:14;3.50;1.00
25512;DHT22;13414;44.534;18.700;2023-03-01T02:16:44;3.50;1.00
25512;DHT22;13414;44.534;18.700;2023-03-01T02:19:20;3.50;1.00
25512;DHT22;13414;44.534;18.700;2023-03-01T02:21:56;3.60;7.70
25512;DHT22;13414;44.534;18.700;2023-03-01T02:24:35;3.60;1.00
25512;DHT22;13414;44.534;18.700;2023-03-01T02:27:10;3.60;99.90
25512;DHT22;13414;44.534;18.700;2023-03-01T02:29:41;3.70;99.90
25512;DHT22;13414;44.534;18.700;2023-03-01T02:32:12;3.70;99.90
25512;DHT22;13414;44.534;18.700;2023-03-01T02:34:41;3.60;1.00
25512;DHT22;13414;44.534;18.700;2023-03-01T02:37:11;3.60;1.00
25512;DHT22;13414;44.534;18.700;2023-03-01T02:39:42;3.60;1.00
25512;DHT22;13414;44.534;18.700;2023-03-01T02:42:14;3.60;99.90
25512;DHT22;13414;44.534;18.700;2023-03-01T02:44:46;3.60;1.00
25512;DHT22;13414;44.534;18.700;2023-03-01T02:47:13;3.60;99.90
25512;DHT22;13414;44.534;18.700;2023-03-01T02:49:41;3.60;99.90
25512;DHT22;13414;44.534;18.700;2023-03-01T02:52:34;3.50;1.00
25512;DHT22;13414;44.534;18.700;2023-03-01T02:55:07;3.50;99.90
25512;DHT22;13414;44.534;18.700;2023-03-01T02:57:37;3.50;1.00
25512;DHT22;13414;44.534;18.700;2023-03-01T03:00:10;3.50;99.90
25512;DHT22;13414;44.534;18.700;2023-03-01T03:02:45;3.50;1.00
25512;DHT22;13414;44.534;18.700;2023-03-01T03:05:24;3.50;1.00
25512;DHT22;13414;44.534;18.700;2023-03-01T03:07:55;3.50;1.00
25512;DHT22;13414;44.534;18.700;2023-03-01T03:10:25;3.50;1.00
25512;DHT22;13414;44.534;18.700;2023-03-01T03:12:54;3.50;1.00
25512;DHT22;13414;44.534;18.700;2023-03-01T03:15:24;3.50;1.00
25512;DHT22;13414;44.534;18.700;2023-03-01T03:17:52;3.50;99.90
25512;DHT22;13414;44.534;18.700;2023-03-01T03:20:22;3.40;99.90
25512;DHT22;13414;44.534;18.700;2023-03-01T03:22:53;3.50;99.90
25512;DHT22;13414;44.534;18.700;2023-03-01T03:25:21;3.40;99.90
25512;DHT22;13414;44.534;18.700;2023-03-01T03:27:51;3.20;99.90
25512;DHT22;13414;44.534;18.700;2023-03-01T03:30:25;3.20;1.00
25512;DHT22;13414;44.534;18.700;2023-03-01T03:32:53;3.20;91.70
25512;DHT22;13414;44.534;18.700;2023-03-01T03:35:22;3.20;1.00
25512;DHT22;13414;44.534;18.700;2023-03-01T03:37:51;3.20;1.00
25512;DHT22;13414;44.534;18.700;2023-03-01T03:40:33;3.30;1.00
25512;DHT22;13414;44.534;18.700;2023-03-01T03:43:02;3.30;99.90
25512;DHT22;13414;44.534;18.700;2023-03-01T03:45:31;3.40;99.90
25512;DHT22;13414;44.534;18.700;2023-03-01T03:47:59;3.40;99.90
25512;DHT22;13414;44.534;18.700;2023-03-01T03:50:27;3.50;52.60
25512;DHT22;13414;44.534;18.700;2023-03-01T03:52:55;3.50;1.00
25512;DHT22;13414;44.534;18.700;2023-03-01T03:55:22;3.60;1.00
25512;DHT22;13414;44.534;18.700;2023-03-01T03:57:53;3.60;1.00
25512;DHT22;13414;44.534;18.700;2023-03-01T04:00:22;3.60;1.00
25512;DHT22;13414;44.534;18.700;2023-03-01T04:02:51;3.70;1.00
25512;DHT22;13414;44.534;18.700;2023-03-01T04:05:22;3.70;99.90
25512;DHT22;13414;44.534;18.700;2023-03-01T04:07:50;3.60;1.00
25512;DHT22;13414;44.534;18.700;2023-03-01T04:10:27;3.60;1.00
25512;DHT22;13414;44.534;18.700;2023-03-01T04:12:55;3.60;1.00
25512;DHT22;13414;44.534;18.700;2023-03-01T04:15:23;3.60;1.00
25512;DHT22;13414;44.534;18.700;2023-03-01T04:17:54;3.60;1.00
25512;DHT22;13414;44.534;18.700;2023-03-01T04:20:23;3.60;1.00
25512;DHT22;13414;44.534;18.700;2023-03-01T04:22:53;3.60;1.00
25512;DHT22;13414;44.534;18.700;2023-03-01T04:25:24;3.60;1.00
25512;DHT22;13414;44.534;18.700;2023-03-01T04:27:52;3.60;1.00
25512;DHT22;13414;44.534;18.700;2023-03-01T04:30:20;3.70;16.80
25512;DHT22;13414;44.534;18.700;2023-03-01T04:32:52;3.70;1.00
25512;DHT22;13414;44.534;18.700;2023-03-01T04:35:20;3.70;1.00
25512;DHT22;13414;44.534;18.700;2023-03-01T04:37:47;3.60;1.00
25512;DHT22;13414;44.534;18.700;2023-03-01T04:40:17;3.60;1.00
25512;DHT22;13414;44.534;18.700;2023-03-01T04:42:44;3.60;46.60
25512;DHT22;13414;44.534;18.700;2023-03-01T04:45:13;3.60;1.00
25512;DHT22;13414;44.534;18.700;2023-03-01T04:47:41;3.50;1.00
25512;DHT22;13414;44.534;18.700;2023-03-01T04:50:13;3.40;1.00
25512;DHT22;13414;44.534;18.700;2023-03-01T04:52:41;3.40;99.90
25512;DHT22;13414;44.534;18.700;2023-03-01T04:55:10;3.50;1.00
25512;DHT22;13414;44.534;18.700;2023-03-01T04:57:37;3.50;1.00
25512;DHT22;13414;44.534;18.700;2023-03-01T05:00:07;3.50;1.00
25512;DHT22;13414;44.534;18.700;2023-03-01T05:02:47;3.50;1.00
25512;DHT22;13414;44.534;18.700;2023-03-01T05:05:22;3.50;1.00
25512;DHT22;13414;44.534;18.700;2023-03-01T05:07:52;3.50;1.00
25512;DHT22;13414;44.534;18.700;2023-03-01T05:10:20;3.60;99.90
25512;DHT22;13414;44.534;18.700;2023-03-01T05:12:48;3.60;99.90
25512;DHT22;13414;44.534;18.700;2023-03-01T05:15:15;3.60;1.00
25512;DHT22;13414;44.534;18.700;2023-03-01T05:17:43;3.50;1.00
25512;DHT22;13414;44.534;18.700;2023-03-01T05:20:12;3.40;25.90
25512;DHT22;13414;44.534;18.700;2023-03-01T05:22:41;3.30;1.00
25512;DHT22;13414;44.534;18.700;2023-03-01T05:25:09;3.30;99.90
25512;DHT22;13414;44.534;18.700;2023-03-01T05:27:36;3.40;23.20
25512;DHT22;13414;44.534;18.700;2023-03-01T05:30:05;3.50;99.90
25512;DHT22;13414;44.534;18.700;2023-03-01T05:32:41;3.50;71.60
25512;DHT22;13414;44.534;18.700;2023-03-01T05:35:11;3.40;99.90
25512;DHT22;13414;44.534;18.700;2023-03-01T05:37:45;3.40;1.00
25512;DHT22;13414;44.534;18.700;2023-03-01T05:40:15;3.40;1.00
25512;DHT22;13414;44.534;18.700;2023-03-01T05:42:43;3.30;1.00
25512;DHT22;13414;44.534;18.700;2023-03-01T05:45:12;3.30;78.90
25512;DHT22;13414;44.534;18.700;2023-03-01T05:47:41;3.30;1.00
25512;DHT22;13414;44.534;18.700;2023-03-01T05:50:12;3.30;78.90
25512;DHT22;13414;44.534;18.700;2023-03-01T05:52:40;3.40;1.00
25512;DHT22;13414;44.534;18.700;2023-03-01T05:55:09;3.40;1.00
25512;DHT22;13414;44.534;18.700;2023-03-01T05:57:37;3.50;1.00
25512;DHT22;13414;44.534;18.700;2023-03-01T06:00:05;3.60;1.00
25512;DHT22;13414;44.534;18.700;2023-03-01T06:02:38;3.70;99.90
25512;DHT22;13414;44.534;18.700;2023-03-01T06:05:07;3.70;99.90
25512;DHT22;13414;44.534;18.700;2023-03-01T06:07:36;3.70;99.90
25512;DHT22;13414;44.534;18.700;2023-03-01T06:10:05;3.70;1.00
25512;DHT22;13414;44.534;18.700;2023-03-01T06:12:35;3.70;1.00
25512;DHT22;13414;44.534;18.700;2023-03-01T06:15:04;3.70;1.00
25512;DHT22;13414;44.534;18.700;2023-03-01T06:17:33;3.70;1.00
25512;DHT22;13414;44.534;18.700;2023-03-01T06:20:04;3.70;1.00
25512;DHT22;13414;44.534;18.700;2023-03-01T06:22:32;3.80;1.00
25512;DHT22;13414;44.534;18.700;2023-03-01T06:25:00;3.80;1.00
25512;DHT22;13414;44.534;18.700;2023-03-01T06:27:27;3.90;1.00
25512;DHT22;13414;44.534;18.700;2023-03-01T06:29:56;3.80;1.00
25512;DHT22;13414;44.534;18.700;2023-03-01T06:32:24;3.80;1.00
25512;DHT22;13414;44.534;18.700;2023-03-01T06:34:51;3.80;1.00
25512;DHT22;13414;44.534;18.700;2023-03-01T06:37:19;3.90;99.90
25512;DHT22;13414;44.534;18.700;2023-03-01T06:39:47;4.00;99.90
25512;DHT22;13414;44.534;18.700;2023-03-01T06:42:15;4.00;1.00
25512;DHT22;13414;44.534;18.700;2023-03-01T06:44:43;4.00;1.00
25512;DHT22;13414;44.534;18.700;2023-03-01T06:47:13;4.00;2.10
25512;DHT22;13414;44.534;18.700;2023-03-01T06:49:41;4.00;99.90
25512;DHT22;13414;44.534;18.700;2023-03-01T06:52:08;3.90;99.90
25512;DHT22;13414;44.534;18.700;2023-03-01T06:54:36;3.80;97.90
25512;DHT22;13414;44.534;18.700;2023-03-01T06:57:03;3.80;99.90
25512;DHT22;13414;44.534;18.700;2023-03-01T06:59:31;3.80;99.90
25512;DHT22;13414;44.534;18.700;2023-03-01T07:01:58;3.80;99.90
25512;DHT22;13414;44.534;18.700;2023-03-01T07:04:27;3.70;1.00
25512;DHT22;13414;44.534;18.700;2023-03-01T07:06:56;3.70;1.00
25512;DHT22;13414;44.534;18.700;2023-03-01T07:09:24;3.90;1.00
25512;DHT22;13414;44.534;18.700;2023-03-01T07:11:51;4.00;1.00
25512;DHT22;13414;44.534;18.700;2023-03-01T07:14:19;4.10;1.00
25512;DHT22;13414;44.534;18.700;2023-03-01T07:16:46;4.20;1.00
25512;DHT22;13414;44.534;18.700;2023-03-01T07:19:14;4.20;1.00
25512;DHT22;13414;44.534;18.700;2023-03-01T07:21:43;4.20;1.00
25512;DHT22;13414;44.534;18.700;2023-03-01T07:24:11;4.10;1.00
25512;DHT22;13414;44.534;18.700;2023-03-01T07:26:38;4.10;1.00
25512;DHT22;13414;44.534;18.700;2023-03-01T07:29:07;4.10;1.00
25512;DHT22;13414;44.534;18.700;2023-03-01T07:31:34;4.20;99.90
25512;DHT22;13414;44.534;18.700;2023-03-01T07:34:02;4.30;99.90
25512;DHT22;13414;44.534;18.700;2023-03-01T07:36:30;4.40;1.00
25512;DHT22;13414;44.534;18.700;2023-03-01T07:39:09;4.40;1.00
25512;DHT22;13414;44.534;18.700;2023-03-01T07:41:37;4.40;99.90
25512;DHT22;13414;44.534;18.700;2023-03-01T07:44:04;4.40;99.90
25512;DHT22;13414;44.534;18.700;2023-03-01T07:46:32;4.50;1.00
25512;DHT22;13414;44.534;18.700;2023-03-01T07:48:59;4.50;99.90
25512;DHT22;13414;44.534;18.700;2023-03-01T07:51:27;4.60;1.00
25512;DHT22;13414;44.534;18.700;2023-03-01T07:53:54;4.60;1.00
25512;DHT22;13414;44.534;18.700;2023-03-01T07:56:23;4.70;1.00
25512;DHT22;13414;44.534;18.700;2023-03-01T07:58:50;4.80;1.00
25512;DHT22;13414;44.534;18.700;2023-03-01T08:01:19;5.00;1.00
25512;DHT22;13414;44.534;18.700;2023-03-01T08:03:47;4.90;9.90
25512;DHT22;13414;44.534;18.700;2023-03-01T08:06:16;5.00;22.10
25512;DHT22;13414;44.534;18.700;2023-03-01T08:08:44;4.90;11.40
25512;DHT22;13414;44.534;18.700;2023-03-01T08:11:14;4.80;99.90
25512;DHT22;13414;44.534;18.700;2023-03-01T08:13:43;4.70;99.90
25512;DHT22;13414;44.534;18.700;2023-03-01T08:16:12;4.70;99.90
25512;DHT22;13414;44.534;18.700;2023-03-01T08:18:40;4.60;99.90
25512;DHT22;13414;44.534;18.700;2023-03-01T08:21:10;4.60;99.90
25512;DHT22;13414;44.534;18.700;2023-03-01T08:23:38;4.60;99.90
25512;DHT22;13414;44.534;18.700;2023-03-01T08:26:11;4.50;99.90
25512;DHT22;13414;44.534;18.700;2023-03-01T08:28:39;4.50;1.00
25512;DHT22;13414;44.534;18.700;2023-03-01T08:31:16;4.60;99.90
25512;DHT22;13414;44.534;18.700;2023-03-01T08:33:45;4.70;67.70
25512;DHT22;13414;44.534;18.700;2023-03-01T08:36:17;4.80;1.00
25512;DHT22;13414;44.534;18.700;2023-03-01T08:38:57;4.80;1.00
25512;DHT22;13414;44.534;18.700;2023-03-01T08:41:25;4.80;1.00
25512;DHT22;13414;44.534;18.700;2023-03-01T08:43:54;5.00;1.00
25512;DHT22;13414;44.534;18.700;2023-03-01T08:46:26;5.10;1.00
25512;DHT22;13414;44.534;18.700;2023-03-01T08:48:54;5.30;1.00
25512;DHT22;13414;44.534;18.700;2023-03-01T08:51:22;5.40;1.00
25512;DHT22;13414;44.534;18.700;2023-03-01T08:53:50;5.50;99.90
25512;DHT22;13414;44.534;18.700;2023-03-01T08:56:21;5.60;1.00
25512;DHT22;13414;44.534;18.700;2023-03-01T08:58:49;5.60;1.00
25512;DHT22;13414;44.534;18.700;2023-03-01T09:01:19;5.60;1.00
25512;DHT22;13414;44.534;18.700;2023-03-01T09:03:48;5.50;1.00
25512;DHT22;13414;44.534;18.700;2023-03-01T09:06:15;5.50;1.00
25512;DHT22;13414;44.534;18.700;2023-03-01T09:08:46;5.50;1.00
25512;DHT22;13414;44.534;18.700;2023-03-01T09:11:18;5.50;1.00
25512;DHT22;13414;44.534;18.700;2023-03-01T09:13:47;5.60;1.00
25512;DHT22;13414;44.534;18.700;2023-03-01T09:16:16;5.80;1.00
25512;DHT22;13414;44.534;18.700;2023-03-01T09:18:48;5.90;1.00
25512;DHT22;13414;44.534;18.700;2023-03-01T09:21:16;6.00;1.00
25512;DHT22;13414;44.534;18.700;2023-03-01T09:23:46;6.10;99.90
25512;DHT22;13414;44.534;18.700;2023-03-01T09:26:15;6.00;1.00
25512;DHT22;13414;44.534;18.700;2023-03-01T09:28:45;5.90;99.90
25512;DHT22;13414;44.534;18.700;2023-03-01T09:31:14;5.80;1.00
25512;DHT22;13414;44.534;18.700;2023-03-01T09:33:45;5.90;1.00
25512;DHT22;13414;44.534;18.700;2023-03-01T09:36:15;6.10;1.00
25512;DHT22;13414;44.534;18.700;2023-03-01T09:38:43;6.30;99.90
25512;DHT22;13414;44.534;18.700;2023-03-01T09:41:17;6.40;95.00
25512;DHT22;13414;44.534;18.700;2023-03-01T09:43:49;6.50;1.00
25512;DHT22;13414;44.534;18.700;2023-03-01T09:46:21;6.70;1.00
25512;DHT22;13414;44.534;18.700;2023-03-01T09:48:52;6.50;1.00
25512;DHT22;13414;44.534;18.700;2023-03-01T09:51:26;6.40;1.00
25512;DHT22;13414;44.534;18.700;2023-03-01T09:53:54;6.40;1.00
25512;DHT22;13414;44.534;18.700;2023-03-01T09:56:28;6.10;99.90
25512;DHT22;13414;44.534;18.700;2023-03-01T09:59:02;5.90;99.90
25512;DHT22;13414;44.534;18.700;2023-03-01T10:01:38;6.00;1.00
25512;DHT22;13414;44.534;18.700;2023-03-01T10:04:33;6.10;99.90
25512;DHT22;13414;44.534;18.700;2023-03-01T10:07:17;5.90;99.90
25512;DHT22;13414;44.534;18.700;2023-03-01T10:09:47;5.40;1.00
25512;DHT22;13414;44.534;18.700;2023-03-01T10:12:17;4.90;99.90
25512;DHT22;13414;44.534;18.700;2023-03-01T10:14:53;4.70;1.00
25512;DHT22;13414;44.534;18.700;2023-03-01T10:17:27;4.80;1.00
25512;DHT22;13414;44.534;18.700;2023-03-01T10:20:14;5.00;99.90
25512;DHT22;13414;44.534;18.700;2023-03-01T10:22:44;5.20;1.00
25512;DHT22;13414;44.534;18.700;2023-03-01T10:25:24;5.40;1.00
25512;DHT22;13414;44.534;18.700;2023-03-01T10:28:02;5.60;1.00
25512;DHT22;13414;44.534;18.700;2023-03-01T10:30:35;5.90;9.10
25512;DHT22;13414;44.534;18.700;2023-03-01T10:33:08;6.00;99.90
25512;DHT22;13414;44.534;18.700;2023-03-01T10:35:41;5.90;99.90
25512;DHT22;13414;44.534;18.700;2023-03-01T10:38:11;6.00;99.90
25512;DHT22;13414;44.534;18.700;2023-03-01T10:40:51;6.10;99.90
25512;DHT22;13414;44.534;18.700;2023-03-01T10:43:20;6.10;1.00
25512;DHT22;13414;44.534;18.700;2023-03-01T10:45:48;6.10;1.00
25512;DHT22;13414;44.534;18.700;2023-03-01T10:48:19;6.20;1.00
25512;DHT22;13414;44.534;18.700;2023-03-01T10:50:50;6.20;99.90
25512;DHT22;13414;44.534;18.700;2023-03-01T10:53:25;6.20;99.90
25512;DHT22;13414;44.534;18.700;2023-03-01T10:56:00;6.20;99.90
25512;DHT22;13414;44.534;18.700;2023-03-01T10:58:29;5.90;1.00
25512;DHT22;13414;44.534;18.700;2023-03-01T11:00:58;5.80;99.90
25512;DHT22;13414;44.534;18.700;2023-03-01T11:03:28;5.70;40.40
25512;DHT22;13414;44.534;18.700;2023-03-01T11:06:02;5.50;1.00
25512;DHT22;13414;44.534;18.700;2023-03-01T11:08:36;5.30;1.00
25512;DHT22;13414;44.534;18.700;2023-03-01T11:11:17;5.10;76.80
25512;DHT22;13414;44.534;18.700;2023-03-01T11:13:54;5.10;18.00
25512;DHT22;13414;44.534;18.700;2023-03-01T11:16:25;5.20;1.00
25512;DHT22;13414;44.534;18.700;2023-03-01T11:18:58;5.20;99.90
25512;DHT22;13414;44.534;18.700;2023-03-01T11:21:28;5.40;99.90
25512;DHT22;13414;44.534;18.700;2023-03-01T11:24:00;5.70;99.90
25512;DHT22;13414;44.534;18.700;2023-03-01T11:26:31;5.90;1.00
25512;DHT22;13414;44.534;18.700;2023-03-01T11:29:05;6.10;1.00
25512;DHT22;13414;44.534;18.700;2023-03-01T11:31:34;6.20;1.00
25512;DHT22;13414;44.534;18.700;2023-03-01T11:34:07;6.20;1.00
25512;DHT22;13414;44.534;18.700;2023-03-01T11:36:42;6.20;99.90
25512;DHT22;13414;44.534;18.700;2023-03-01T11:39:20;6.40;99.90
25512;DHT22;13414;44.534;18.700;2023-03-01T11:42:00;6.60;99.90
25512;DHT22;13414;44.534;18.700;2023-03-01T11:44:31;6.70;54.10
25512;DHT22;13414;44.534;18.700;2023-03-01T11:47:15;6.80;1.00
25512;DHT22;13414;44.534;18.700;2023-03-01T11:52:50;7.10;1.00
25512;DHT22;13414;44.534;18.700;2023-03-01T11:55:31;7.10;1.00
25512;DHT22;13414;44.534;18.700;2023-03-01T12:01:03;7.30;1.00
25512;DHT22;13414;44.534;18.700;2023-03-01T12:03:46;7.50;1.00
25512;DHT22;13414;44.534;18.700;2023-03-01T12:06:27;7.30;99.90
25512;DHT22;13414;44.534;18.700;2023-03-01T12:09:10;7.30;1.00
25512;DHT22;13414;44.534;18.700;2023-03-01T12:11:57;7.30;1.00
25512;DHT22;13414;44.534;18.700;2023-03-01T12:14:43;7.40;1.00
25512;DHT22;13414;44.534;18.700;2023-03-01T12:17:39;7.50;1.00
25512;DHT22;13414;44.534;18.700;2023-03-01T12:20:18;7.60;99.90
25512;DHT22;13414;44.534;18.700;2023-03-01T12:23:01;7.80;99.90
25512;DHT22;13414;44.534;18.700;2023-03-01T12:25:35;7.80;99.90
25512;DHT22;13414;44.534;18.700;2023-03-01T12:28:35;7.80;99.90
25512;DHT22;13414;44.534;18.700;2023-03-01T12:34:15;7.90;99.90
25512;DHT22;13414;44.534;18.700;2023-03-01T12:37:14;8.00;99.90
25512;DHT22;13414;44.534;18.700;2023-03-01T12:39:53;8.00;99.90
25512;DHT22;13414;44.534;18.700;2023-03-01T12:42:31;7.80;99.90
25512;DHT22;13414;44.534;18.700;2023-03-01T12:45:28;7.70;99.90
25512;DHT22;13414;44.534;18.700;2023-03-01T12:48:08;7.70;99.90
25512;DHT22;13414;44.534;18.700;2023-03-01T12:50:40;7.80;99.90
25512;DHT22;13414;44.534;18.700;2023-03-01T12:53:20;7.60;99.90
25512;DHT22;13414;44.534;18.700;2023-03-01T12:55:50;7.30;99.90
25512;DHT22;13414;44.534;18.700;2023-03-01T12:58:26;7.20;1.00
25512;DHT22;13414;44.534;18.700;2023-03-01T13:01:08;7.30;1.00
25512;DHT22;13414;44.534;18.700;2023-03-01T13:04:00;7.20;99.90
25512;DHT22;13414;44.534;18.700;2023-03-01T13:06:34;7.20;1.00
25512;DHT22;13414;44.534;18.700;2023-03-01T13:09:10;7.20;1.00
25512;DHT22;13414;44.534;18.700;2023-03-01T13:11:41;7.30;1.00
25512;DHT22;13414;44.534;18.700;2023-03-01T13:14:37;7.30;1.00
25512;DHT22;13414;44.534;18.700;2023-03-01T13:17:39;7.40;99.90
25512;DHT22;13414;44.534;18.700;2023-03-01T13:22:39;7.10;99.90
25512;DHT22;13414;44.534;18.700;2023-03-01T13:25:16;7.00;1.00
25512;DHT22;13414;44.534;18.700;2023-03-01T13:27:44;7.00;1.00
25512;DHT22;13414;44.534;18.700;2023-03-01T13:30:41;7.00;1.00
25512;DHT22;13414;44.534;18.700;2023-03-01T13:33:48;6.80;1.00
25512;DHT22;13414;44.534;18.700;2023-03-01T13:36:47;6.50;1.00
25512;DHT22;13414;44.534;18.700;2023-03-01T13:39:31;6.40;1.00
25512;DHT22;13414;44.534;18.700;2023-03-01T13:42:00;6.30;1.00
25512;DHT22;13414;44.534;18.700;2023-03-01T13:44:30;6.20;99.90
25512;DHT22;13414;44.534;18.700;2023-03-01T13:47:02;6.10;99.90
25512;DHT22;13414;44.534;18.700;2023-03-01T13:49:43;6.10;99.90
25512;DHT22;13414;44.534;18.700;2023-03-01T13:52:38;6.10;99.90
25512;DHT22;13414;44.534;18.700;2023-03-01T13:55:17;6.10;1.00
25512;DHT22;13414;44.534;18.700;2023-03-01T13:57:47;6.30;1.00
25512;DHT22;13414;44.534;18.700;2023-03-01T14:00:29;6.40;1.00
25512;DHT22;13414;44.534;18.700;2023-03-01T14:03:12;6.50;99.90
25512;DHT22;13414;44.534;18.700;2023-03-01T14:05:43;6.50;99.90
25512;DHT22;13414;44.534;18.700;2023-03-01T14:08:21;6.60;99.90
25512;DHT22;13414;44.534;18.700;2023-03-01T14:10:57;6.60;99.20
25512;DHT22;13414;44.534;18.700;2023-03-01T14:13:36;6.70;89.20
25512;DHT22;13414;44.534;18.700;2023-03-01T14:16:20;6.50;99.90
25512;DHT22;13414;44.534;18.700;2023-03-01T14:18:59;6.60;99.90
25512;DHT22;13414;44.534;18.700;2023-03-01T14:21:30;6.50;99.90
25512;DHT22;13414;44.534;18.700;2023-03-01T14:23:58;6.50;99.90
25512;DHT22;13414;44.534;18.700;2023-03-01T14:26:26;6.40;99.90
25512;DHT22;13414;44.534;18.700;2023-03-01T14:28:53;6.40;99.90
25512;DHT22;13414;44.534;18.700;2023-03-01T14:31:37;6.40;99.90
25512;DHT22;13414;44.534;18.700;2023-03-01T14:34:05;6.30;99.90
25512;DHT22;13414;44.534;18.700;2023-03-01T14:36:34;6.40;1.00
25512;DHT22;13414;44.534;18.700;2023-03-01T14:39:16;6.40;1.00
25512;DHT22;13414;44.534;18.700;2023-03-01T14:41:44;6.50;1.00
25512;DHT22;13414;44.534;18.700;2023-03-01T14:44:16;6.60;1.00
25512;DHT22;13414;44.534;18.700;2023-03-01T14:46:45;6.70;1.00
25512;DHT22;13414;44.534;18.700;2023-03-01T14:49:16;6.70;99.90
25512;DHT22;13414;44.534;18.700;2023-03-01T14:51:51;6.70;1.00
25512;DHT22;13414;44.534;18.700;2023-03-01T14:54:24;6.80;25.50
25512;DHT22;13414;44.534;18.700;2023-03-01T14:56:53;6.80;1.00
25512;DHT22;13414;44.534;18.700;2023-03-01T14:59:22;6.90;1.00
25512;DHT22;13414;44.534;18.700;2023-03-01T15:01:51;6.70;1.00
25512;DHT22;13414;44.534;18.700;2023-03-01T15:04:21;6.50;95.80
25512;DHT22;13414;44.534;18.700;2023-03-01T15:06:52;6.40;99.90
25512;DHT22;13414;44.534;18.700;2023-03-01T15:09:20;6.30;1.00
25512;DHT22;13414;44.534;18.700;2023-03-01T15:11:51;6.30;1.00
25512;DHT22;13414;44.534;18.700;2023-03-01T15:14:27;6.40;1.00
25512;DHT22;13414;44.534;18.700;2023-03-01T15:16:55;6.30;1.00
25512;DHT22;13414;44.534;18.700;2023-03-01T15:19:24;6.30;1.00
25512;DHT22;13414;44.534;18.700;2023-03-01T15:21:56;6.30;1.00
25512;DHT22;13414;44.534;18.700;2023-03-01T15:24:25;6.30;1.00
25512;DHT22;13414;44.534;18.700;2023-03-01T15:26:57;6.30;1.00
25512;DHT22;13414;44.534;18.700;2023-03-01T15:29:29;6.30;1.00
25512;DHT22;13414;44.534;18.700;2023-03-01T15:32:01;6.30;1.00
25512;DHT22;13414;44.534;18.700;2023-03-01T15:34:31;6.40;1.00
25512;DHT22;13414;44.534;18.700;2023-03-01T15:37:02;6.40;1.00
25512;DHT22;13414;44.534;18.700;2023-03-01T15:39:37;6.40;1.00
25512;DHT22;13414;44.534;18.700;2023-03-01T15:42:07;6.50;1.00
25512;DHT22;13414;44.534;18.700;2023-03-01T15:44:38;6.50;1.00
25512;DHT22;13414;44.534;18.700;2023-03-01T15:47:23;6.40;99.90
25512;DHT22;13414;44.534;18.700;2023-03-01T15:49:53;6.40;1.00
25512;DHT22;13414;44.534;18.700;2023-03-01T15:52:25;6.40;1.00
25512;DHT22;13414;44.534;18.700;2023-03-01T15:54:57;6.40;1.00
25512;DHT22;13414;44.534;18.700;2023-03-01T15:57:25;6.10;1.00
25512;DHT22;13414;44.534;18.700;2023-03-01T15:59:53;6.00;1.00
25512;DHT22;13414;44.534;18.700;2023-03-01T16:02:21;6.00;99.90
25512;DHT22;13414;44.534;18.700;2023-03-01T16:04:48;6.00;99.90
25512;DHT22;13414;44.534;18.700;2023-03-01T16:07:16;5.90;1.00
25512;DHT22;13414;44.534;18.700;2023-03-01T16:09:45;6.00;1.00
25512;DHT22;13414;44.534;18.700;2023-03-01T16:12:14;6.00;1.00
25512;DHT22;13414;44.534;18.700;2023-03-01T16:14:43;6.00;1.00
25512;DHT22;13414;44.534;18.700;2023-03-01T16:17:10;6.00;1.00
25512;DHT22;13414;44.534;18.700;2023-03-01T16:19:39;6.00;63.80
25512;DHT22;13414;44.534;18.700;2023-03-01T16:22:08;6.00;10.70